LGKZ/KZI METAR and TAF weather

Enter ICAO airport designator
Station Type Date Time Source
LGKZ METAR 2022/01/26 06:50 UTC NOAA

LGKZ 260650Z 00000KT 9999 FEW070 M04/M18 Q1023


Station Type Date Time Source
LGKZ Decoded METAR 2022/01/26 06:50 UTC NOAA

Kozani Airport , Greece (LGKZ) 40-18N 021-47E 627M
Jan 26, 2022 - 01:50 AM EST / 2022.01.26 0650 UTC
Wind: Calm:0
Visibility: greater than 7 mile(s):0
Sky conditions: mostly clear
Temperature: 24 F (-4 C)
Dew Point: 0 F (-18 C)
Relative Humidity: 32%
Pressure (altimeter): 30.21 in. Hg (1023 hPa)
ob: LGKZ 260650Z 00000KT 9999 FEW070 M04/M18 Q1023
cycle: 7

Station Type Date Time Source
LGKZ TAF UTC NOAA

Error!

Example: see airport list